sensor_id;sensor_type;location;lat;lon;timestamp;P1;P2;P0
65803;PMS5003;65658;63.740;34.316;2023-02-10T00:01:55;28;33;
65803;PMS5003;65658;63.740;34.316;2023-02-10T00:05:42;28;32;
65803;PMS5003;65658;63.740;34.316;2023-02-10T00:09:29;27;30;
65803;PMS5003;65658;63.740;34.316;2023-02-10T00:13:18;30;32;
65803;PMS5003;65658;63.740;34.316;2023-02-10T00:17:06;27;28;
65803;PMS5003;65658;63.740;34.316;2023-02-10T00:20:55;32;36;
65803;PMS5003;65658;63.740;34.316;2023-02-10T00:24:42;27;30;
65803;PMS5003;65658;63.740;34.316;2023-02-10T00:28:31;30;32;
65803;PMS5003;65658;63.740;34.316;2023-02-10T00:32:18;26;30;
65803;PMS5003;65658;63.740;34.316;2023-02-10T00:36:07;27;28;
65803;PMS5003;65658;63.740;34.316;2023-02-10T00:39:56;21;21;
65803;PMS5003;65658;63.740;34.316;2023-02-10T00:43:54;25;30;
65803;PMS5003;65658;63.740;34.316;2023-02-10T00:47:41;25;26;
65803;PMS5003;65658;63.740;34.316;2023-02-10T00:51:28;30;35;
65803;PMS5003;65658;63.740;34.316;2023-02-10T00:55:17;24;29;
65803;PMS5003;65658;63.740;34.316;2023-02-10T00:59:08;25;26;
65803;PMS5003;65658;63.740;34.316;2023-02-10T01:02:56;24;25;
65803;PMS5003;65658;63.740;34.316;2023-02-10T01:06:44;29;30;
65803;PMS5003;65658;63.740;34.316;2023-02-10T01:10:32;23;23;
65803;PMS5003;65658;63.740;34.316;2023-02-10T01:14:21;25;29;
65803;PMS5003;65658;63.740;34.316;2023-02-10T01:18:09;26;29;
65803;PMS5003;65658;63.740;34.316;2023-02-10T01:21:56;25;28;
65803;PMS5003;65658;63.740;34.316;2023-02-10T01:25:55;25;25;
65803;PMS5003;65658;63.740;34.316;2023-02-10T01:29:48;29;30;
65803;PMS5003;65658;63.740;34.316;2023-02-10T01:33:35;26;29;
65803;PMS5003;65658;63.740;34.316;2023-02-10T01:37:25;29;34;
65803;PMS5003;65658;63.740;34.316;2023-02-10T01:41:17;24;28;
65803;PMS5003;65658;63.740;34.316;2023-02-10T01:49:04;24;25;
65803;PMS5003;65658;63.740;34.316;2023-02-10T01:52:55;27;29;
65803;PMS5003;65658;63.740;34.316;2023-02-10T01:56:43;25;26;
65803;PMS5003;65658;63.740;34.316;2023-02-10T02:00:32;21;23;
65803;PMS5003;65658;63.740;34.316;2023-02-10T02:04:21;26;31;
65803;PMS5003;65658;63.740;34.316;2023-02-10T02:16:01;20;23;
65803;PMS5003;65658;63.740;34.316;2023-02-10T02:19:58;24;26;
65803;PMS5003;65658;63.740;34.316;2023-02-10T02:35:24;25;29;
65803;PMS5003;65658;63.740;34.316;2023-02-10T02:39:13;22;24;
65803;PMS5003;65658;63.740;34.316;2023-02-10T02:43:01;29;30;
65803;PMS5003;65658;63.740;34.316;2023-02-10T02:46:55;28;29;
65803;PMS5003;65658;63.740;34.316;2023-02-10T02:54:38;28;28;
65803;PMS5003;65658;63.740;34.316;2023-02-10T03:02:16;26;28;
65803;PMS5003;65658;63.740;34.316;2023-02-10T03:06:06;28;30;
65803;PMS5003;65658;63.740;34.316;2023-02-10T03:09:55;27;28;
65803;PMS5003;65658;63.740;34.316;2023-02-10T03:13:55;25;28;
65803;PMS5003;65658;63.740;34.316;2023-02-10T03:17:44;29;31;
65803;PMS5003;65658;63.740;34.316;2023-02-10T03:21:32;29;29;
65803;PMS5003;65658;63.740;34.316;2023-02-10T03:25:20;24;27;
65803;PMS5003;65658;63.740;34.316;2023-02-10T03:29:09;24;25;
65803;PMS5003;65658;63.740;34.316;2023-02-10T03:32:59;28;29;
65803;PMS5003;65658;63.740;34.316;2023-02-10T03:36:46;31;34;
65803;PMS5003;65658;63.740;34.316;2023-02-10T03:40:48;25;29;
65803;PMS5003;65658;63.740;34.316;2023-02-10T03:44:36;23;29;
65803;PMS5003;65658;63.740;34.316;2023-02-10T03:48:24;25;28;
65803;PMS5003;65658;63.740;34.316;2023-02-10T03:52:14;25;29;
65803;PMS5003;65658;63.740;34.316;2023-02-10T03:56:14;29;31;
65803;PMS5003;65658;63.740;34.316;2023-02-10T04:00:03;31;33;
65803;PMS5003;65658;63.740;34.316;2023-02-10T04:03:50;23;30;
65803;PMS5003;65658;63.740;34.316;2023-02-10T04:07:38;30;31;
65803;PMS5003;65658;63.740;34.316;2023-02-10T04:11:24;25;28;
65803;PMS5003;65658;63.740;34.316;2023-02-10T04:15:13;22;23;
65803;PMS5003;65658;63.740;34.316;2023-02-10T04:19:02;24;24;
65803;PMS5003;65658;63.740;34.316;2023-02-10T04:22:50;23;26;
65803;PMS5003;65658;63.740;34.316;2023-02-10T04:26:39;24;26;
65803;PMS5003;65658;63.740;34.316;2023-02-10T04:30:28;24;29;
65803;PMS5003;65658;63.740;34.316;2023-02-10T04:34:15;28;30;
65803;PMS5003;65658;63.740;34.316;2023-02-10T04:38:05;26;30;
65803;PMS5003;65658;63.740;34.316;2023-02-10T04:41:53;23;24;
65803;PMS5003;65658;63.740;34.316;2023-02-10T04:45:51;25;26;
65803;PMS5003;65658;63.740;34.316;2023-02-10T04:49:40;21;22;
65803;PMS5003;65658;63.740;34.316;2023-02-10T04:53:29;26;27;
65803;PMS5003;65658;63.740;34.316;2023-02-10T04:57:16;24;25;
65803;PMS5003;65658;63.740;34.316;2023-02-10T05:01:04;24;27;
65803;PMS5003;65658;63.740;34.316;2023-02-10T05:04:51;24;25;
65803;PMS5003;65658;63.740;34.316;2023-02-10T05:08:39;25;26;
65803;PMS5003;65658;63.740;34.316;2023-02-10T05:12:27;23;25;
65803;PMS5003;65658;63.740;34.316;2023-02-10T05:16:17;21;24;
65803;PMS5003;65658;63.740;34.316;2023-02-10T05:20:05;21;22;
65803;PMS5003;65658;63.740;34.316;2023-02-10T05:23:56;24;25;
65803;PMS5003;65658;63.740;34.316;2023-02-10T05:27:54;21;23;
65803;PMS5003;65658;63.740;34.316;2023-02-10T05:31:42;20;22;
65803;PMS5003;65658;63.740;34.316;2023-02-10T05:35:28;19;20;
65803;PMS5003;65658;63.740;34.316;2023-02-10T05:39:18;23;26;
65803;PMS5003;65658;63.740;34.316;2023-02-10T05:43:04;20;24;
65803;PMS5003;65658;63.740;34.316;2023-02-10T05:46:51;21;23;
65803;PMS5003;65658;63.740;34.316;2023-02-10T05:50:40;18;18;
65803;PMS5003;65658;63.740;34.316;2023-02-10T05:54:27;25;29;
65803;PMS5003;65658;63.740;34.316;2023-02-10T05:58:17;25;25;
65803;PMS5003;65658;63.740;34.316;2023-02-10T06:02:04;18;19;
65803;PMS5003;65658;63.740;34.316;2023-02-10T06:05:51;21;21;
65803;PMS5003;65658;63.740;34.316;2023-02-10T06:09:39;20;23;
65803;PMS5003;65658;63.740;34.316;2023-02-10T06:13:25;21;23;
65803;PMS5003;65658;63.740;34.316;2023-02-10T06:17:13;21;24;
65803;PMS5003;65658;63.740;34.316;2023-02-10T06:24:56;20;21;
65803;PMS5003;65658;63.740;34.316;2023-02-10T06:28:44;24;25;
65803;PMS5003;65658;63.740;34.316;2023-02-10T06:32:31;25;27;
65803;PMS5003;65658;63.740;34.316;2023-02-10T06:36:31;26;26;
65803;PMS5003;65658;63.740;34.316;2023-02-10T06:40:18;23;24;
65803;PMS5003;65658;63.740;34.316;2023-02-10T06:44:17;25;27;
65803;PMS5003;65658;63.740;34.316;2023-02-10T06:48:05;28;30;
65803;PMS5003;65658;63.740;34.316;2023-02-10T06:51:51;22;25;
65803;PMS5003;65658;63.740;34.316;2023-02-10T06:55:40;24;28;
65803;PMS5003;65658;63.740;34.316;2023-02-10T06:59:28;22;27;
65803;PMS5003;65658;63.740;34.316;2023-02-10T07:03:16;24;25;
65803;PMS5003;65658;63.740;34.316;2023-02-10T07:07:15;28;28;
65803;PMS5003;65658;63.740;34.316;2023-02-10T07:11:03;29;30;
65803;PMS5003;65658;63.740;34.316;2023-02-10T07:15:03;27;30;
65803;PMS5003;65658;63.740;34.316;2023-02-10T07:18:50;24;25;
65803;PMS5003;65658;63.740;34.316;2023-02-10T07:22:37;25;26;
65803;PMS5003;65658;63.740;34.316;2023-02-10T07:26:35;25;33;
65803;PMS5003;65658;63.740;34.316;2023-02-10T07:30:22;27;27;
65803;PMS5003;65658;63.740;34.316;2023-02-10T07:34:10;27;29;
65803;PMS5003;65658;63.740;34.316;2023-02-10T07:37:59;23;27;
65803;PMS5003;65658;63.740;34.316;2023-02-10T07:41:47;21;22;
65803;PMS5003;65658;63.740;34.316;2023-02-10T07:45:35;28;32;
65803;PMS5003;65658;63.740;34.316;2023-02-10T07:49:24;25;27;
65803;PMS5003;65658;63.740;34.316;2023-02-10T07:53:16;32;34;
65803;PMS5003;65658;63.740;34.316;2023-02-10T07:57:03;29;35;
65803;PMS5003;65658;63.740;34.316;2023-02-10T08:01:13;30;34;
65803;PMS5003;65658;63.740;34.316;2023-02-10T08:05:11;27;29;
65803;PMS5003;65658;63.740;34.316;2023-02-10T08:09:11;33;37;
65803;PMS5003;65658;63.740;34.316;2023-02-10T08:13:01;28;29;
65803;PMS5003;65658;63.740;34.316;2023-02-10T08:16:48;25;27;
65803;PMS5003;65658;63.740;34.316;2023-02-10T08:20:38;30;33;
65803;PMS5003;65658;63.740;34.316;2023-02-10T08:24:29;30;32;
65803;PMS5003;65658;63.740;34.316;2023-02-10T08:28:18;34;36;
65803;PMS5003;65658;63.740;34.316;2023-02-10T08:32:28;27;29;
65803;PMS5003;65658;63.740;34.316;2023-02-10T08:36:19;27;30;
65803;PMS5003;65658;63.740;34.316;2023-02-10T08:40:08;36;38;
65803;PMS5003;65658;63.740;34.316;2023-02-10T08:43:58;30;32;
65803;PMS5003;65658;63.740;34.316;2023-02-10T08:47:48;35;41;
65803;PMS5003;65658;63.740;34.316;2023-02-10T08:51:38;30;31;
65803;PMS5003;65658;63.740;34.316;2023-02-10T08:55:27;35;37;
65803;PMS5003;65658;63.740;34.316;2023-02-10T08:59:16;32;37;
65803;PMS5003;65658;63.740;34.316;2023-02-10T09:03:06;36;37;
65803;PMS5003;65658;63.740;34.316;2023-02-10T09:06:55;29;31;
65803;PMS5003;65658;63.740;34.316;2023-02-10T09:10:54;27;30;
65803;PMS5003;65658;63.740;34.316;2023-02-10T09:14:42;29;30;
65803;PMS5003;65658;63.740;34.316;2023-02-10T09:18:41;26;27;
65803;PMS5003;65658;63.740;34.316;2023-02-10T09:22:32;33;37;
65803;PMS5003;65658;63.740;34.316;2023-02-10T09:26:31;30;33;
65803;PMS5003;65658;63.740;34.316;2023-02-10T09:30:18;29;31;
65803;PMS5003;65658;63.740;34.316;2023-02-10T09:34:08;28;31;
65803;PMS5003;65658;63.740;34.316;2023-02-10T09:37:56;30;30;
65803;PMS5003;65658;63.740;34.316;2023-02-10T09:46:03;28;30;
65803;PMS5003;65658;63.740;34.316;2023-02-10T09:53:57;25;27;
65803;PMS5003;65658;63.740;34.316;2023-02-10T09:57:49;25;28;
65803;PMS5003;65658;63.740;34.316;2023-02-10T10:01:43;30;32;
65803;PMS5003;65658;63.740;34.316;2023-02-10T10:13:55;32;41;
65803;PMS5003;65658;63.740;34.316;2023-02-10T10:27:28;26;39;
65803;PMS5003;65658;63.740;34.316;2023-02-10T10:31:23;34;40;
65803;PMS5003;65658;63.740;34.316;2023-02-10T10:35:16;24;26;
65803;PMS5003;65658;63.740;34.316;2023-02-10T10:42:59;28;29;
65803;PMS5003;65658;63.740;34.316;2023-02-10T10:46:49;26;29;
65803;PMS5003;65658;63.740;34.316;2023-02-10T10:50:37;24;26;
65803;PMS5003;65658;63.740;34.316;2023-02-10T10:54:25;20;20;
65803;PMS5003;65658;63.740;34.316;2023-02-10T11:09:50;26;26;
65803;PMS5003;65658;63.740;34.316;2023-02-10T11:13:40;29;32;
65803;PMS5003;65658;63.740;34.316;2023-02-10T11:21:17;22;25;
65803;PMS5003;65658;63.740;34.316;2023-02-10T11:28:56;25;28;
65803;PMS5003;65658;63.740;34.316;2023-02-10T11:32:47;22;28;
65803;PMS5003;65658;63.740;34.316;2023-02-10T11:36:46;23;26;
65803;PMS5003;65658;63.740;34.316;2023-02-10T11:44:38;20;22;
65803;PMS5003;65658;63.740;34.316;2023-02-10T11:48:26;22;23;
65803;PMS5003;65658;63.740;34.316;2023-02-10T11:52:15;21;23;
65803;PMS5003;65658;63.740;34.316;2023-02-10T12:34:59;30;30;
65803;PMS5003;65658;63.740;34.316;2023-02-10T12:54:48;26;26;
65803;PMS5003;65658;63.740;34.316;2023-02-10T13:02:16;25;29;
65803;PMS5003;65658;63.740;34.316;2023-02-10T13:14:08;29;32;
65803;PMS5003;65658;63.740;34.316;2023-02-10T13:34:39;31;32;
65803;PMS5003;65658;63.740;34.316;2023-02-10T13:37:51;27;28;
65803;PMS5003;65658;63.740;34.316;2023-02-10T13:41:40;32;34;
65803;PMS5003;65658;63.740;34.316;2023-02-10T13:45:31;30;30;
65803;PMS5003;65658;63.740;34.316;2023-02-10T13:49:19;35;37;
65803;PMS5003;65658;63.740;34.316;2023-02-10T13:57:01;25;28;
65803;PMS5003;65658;63.740;34.316;2023-02-10T14:01:01;29;33;
65803;PMS5003;65658;63.740;34.316;2023-02-10T14:04:50;26;28;
65803;PMS5003;65658;63.740;34.316;2023-02-10T14:08:50;29;33;
65803;PMS5003;65658;63.740;34.316;2023-02-10T14:21:20;34;37;
65803;PMS5003;65658;63.740;34.316;2023-02-10T14:29:17;31;35;
65803;PMS5003;65658;63.740;34.316;2023-02-10T14:33:29;31;36;
65803;PMS5003;65658;63.740;34.316;2023-02-10T14:37:32;33;34;
65803;PMS5003;65658;63.740;34.316;2023-02-10T14:41:24;33;37;
65803;PMS5003;65658;63.740;34.316;2023-02-10T14:45:18;37;43;
65803;PMS5003;65658;63.740;34.316;2023-02-10T14:49:42;34;35;
65803;PMS5003;65658;63.740;34.316;2023-02-10T14:53:35;30;32;
65803;PMS5003;65658;63.740;34.316;2023-02-10T14:57:35;26;29;
65803;PMS5003;65658;63.740;34.316;2023-02-10T15:01:36;35;37;
65803;PMS5003;65658;63.740;34.316;2023-02-10T15:05:26;29;31;
65803;PMS5003;65658;63.740;34.316;2023-02-10T15:09:18;34;35;
65803;PMS5003;65658;63.740;34.316;2023-02-10T15:13:08;36;44;
65803;PMS5003;65658;63.740;34.316;2023-02-10T15:17:00;31;37;
65803;PMS5003;65658;63.740;34.316;2023-02-10T15:20:53;29;31;
65803;PMS5003;65658;63.740;34.316;2023-02-10T15:29:35;44;54;
65803;PMS5003;65658;63.740;34.316;2023-02-10T15:33:52;28;31;
65803;PMS5003;65658;63.740;34.316;2023-02-10T15:37:41;29;30;
65803;PMS5003;65658;63.740;34.316;2023-02-10T15:45:28;37;38;
65803;PMS5003;65658;63.740;34.316;2023-02-10T15:49:18;31;32;
65803;PMS5003;65658;63.740;34.316;2023-02-10T15:53:30;26;35;
65803;PMS5003;65658;63.740;34.316;2023-02-10T15:57:29;27;28;
65803;PMS5003;65658;63.740;34.316;2023-02-10T16:01:29;31;31;
65803;PMS5003;65658;63.740;34.316;2023-02-10T16:05:30;32;35;
65803;PMS5003;65658;63.740;34.316;2023-02-10T16:09:20;34;39;
65803;PMS5003;65658;63.740;34.316;2023-02-10T16:13:31;23;26;
65803;PMS5003;65658;63.740;34.316;2023-02-10T16:17:35;31;32;
65803;PMS5003;65658;63.740;34.316;2023-02-10T16:21:28;36;40;
65803;PMS5003;65658;63.740;34.316;2023-02-10T16:25:40;39;43;
65803;PMS5003;65658;63.740;34.316;2023-02-10T16:29:31;28;29;
65803;PMS5003;65658;63.740;34.316;2023-02-10T16:33:32;31;31;
65803;PMS5003;65658;63.740;34.316;2023-02-10T16:37:57;37;39;
65803;PMS5003;65658;63.740;34.316;2023-02-10T16:41:56;35;39;
65803;PMS5003;65658;63.740;34.316;2023-02-10T16:45:55;32;33;
65803;PMS5003;65658;63.740;34.316;2023-02-10T16:49:56;37;40;
65803;PMS5003;65658;63.740;34.316;2023-02-10T16:53:55;17;20;
65803;PMS5003;65658;63.740;34.316;2023-02-10T16:57:57;36;40;
65803;PMS5003;65658;63.740;34.316;2023-02-10T17:01:58;29;29;
65803;PMS5003;65658;63.740;34.316;2023-02-10T17:06:15;38;43;
65803;PMS5003;65658;63.740;34.316;2023-02-10T17:10:40;30;32;
65803;PMS5003;65658;63.740;34.316;2023-02-10T17:14:29;35;37;
65803;PMS5003;65658;63.740;34.316;2023-02-10T17:18:31;37;41;
65803;PMS5003;65658;63.740;34.316;2023-02-10T17:22:33;37;40;
65803;PMS5003;65658;63.740;34.316;2023-02-10T17:27:08;35;35;
65803;PMS5003;65658;63.740;34.316;2023-02-10T17:31:15;34;38;
65803;PMS5003;65658;63.740;34.316;2023-02-10T17:35:05;36;41;
65803;PMS5003;65658;63.740;34.316;2023-02-10T17:38:54;37;39;
65803;PMS5003;65658;63.740;34.316;2023-02-10T17:43:06;38;43;
65803;PMS5003;65658;63.740;34.316;2023-02-10T17:47:08;33;34;
65803;PMS5003;65658;63.740;34.316;2023-02-10T17:51:10;33;37;
65803;PMS5003;65658;63.740;34.316;2023-02-10T17:55:47;34;42;
65803;PMS5003;65658;63.740;34.316;2023-02-10T17:59:36;38;42;
65803;PMS5003;65658;63.740;34.316;2023-02-10T18:03:36;29;32;
65803;PMS5003;65658;63.740;34.316;2023-02-10T18:07:38;34;38;
65803;PMS5003;65658;63.740;34.316;2023-02-10T18:11:26;31;36;
65803;PMS5003;65658;63.740;34.316;2023-02-10T18:15:14;28;31;
65803;PMS5003;65658;63.740;34.316;2023-02-10T18:19:05;35;37;
65803;PMS5003;65658;63.740;34.316;2023-02-10T18:22:56;32;34;
65803;PMS5003;65658;63.740;34.316;2023-02-10T18:26:56;33;36;
65803;PMS5003;65658;63.740;34.316;2023-02-10T18:31:00;29;30;
65803;PMS5003;65658;63.740;34.316;2023-02-10T18:35:11;31;33;
65803;PMS5003;65658;63.740;34.316;2023-02-10T18:39:03;32;34;
65803;PMS5003;65658;63.740;34.316;2023-02-10T18:43:03;23;23;
65803;PMS5003;65658;63.740;34.316;2023-02-10T18:46:53;34;35;
65803;PMS5003;65658;63.740;34.316;2023-02-10T18:50:43;33;38;
65803;PMS5003;65658;63.740;34.316;2023-02-10T18:55:08;36;45;
65803;PMS5003;65658;63.740;34.316;2023-02-10T18:58:59;37;44;
65803;PMS5003;65658;63.740;34.316;2023-02-10T19:02:46;31;31;
65803;PMS5003;65658;63.740;34.316;2023-02-10T19:06:48;34;35;
65803;PMS5003;65658;63.740;34.316;2023-02-10T19:12:07;37;42;
65803;PMS5003;65658;63.740;34.316;2023-02-10T19:16:07;34;40;
65803;PMS5003;65658;63.740;34.316;2023-02-10T19:19:56;31;32;
65803;PMS5003;65658;63.740;34.316;2023-02-10T19:23:47;38;43;
65803;PMS5003;65658;63.740;34.316;2023-02-10T19:27:35;36;44;
65803;PMS5003;65658;63.740;34.316;2023-02-10T19:31:23;26;28;
65803;PMS5003;65658;63.740;34.316;2023-02-10T19:35:14;31;34;
65803;PMS5003;65658;63.740;34.316;2023-02-10T19:39:03;33;36;
65803;PMS5003;65658;63.740;34.316;2023-02-10T19:43:03;39;41;
65803;PMS5003;65658;63.740;34.316;2023-02-10T19:47:04;29;30;
65803;PMS5003;65658;63.740;34.316;2023-02-10T19:50:52;37;38;
65803;PMS5003;65658;63.740;34.316;2023-02-10T19:55:05;28;30;
65803;PMS5003;65658;63.740;34.316;2023-02-10T19:58:52;31;31;
65803;PMS5003;65658;63.740;34.316;2023-02-10T20:02:41;29;32;
65803;PMS5003;65658;63.740;34.316;2023-02-10T20:06:31;26;29;
65803;PMS5003;65658;63.740;34.316;2023-02-10T20:10:20;24;25;
65803;PMS5003;65658;63.740;34.316;2023-02-10T20:14:09;29;33;
65803;PMS5003;65658;63.740;34.316;2023-02-10T20:17:56;29;30;
65803;PMS5003;65658;63.740;34.316;2023-02-10T20:21:43;32;32;
65803;PMS5003;65658;63.740;34.316;2023-02-10T20:25:30;28;30;
65803;PMS5003;65658;63.740;34.316;2023-02-10T20:29:19;29;32;
65803;PMS5003;65658;63.740;34.316;2023-02-10T20:33:07;23;28;
65803;PMS5003;65658;63.740;34.316;2023-02-10T20:36:54;25;28;
65803;PMS5003;65658;63.740;34.316;2023-02-10T20:40:42;23;25;
65803;PMS5003;65658;63.740;34.316;2023-02-10T20:44:31;28;33;
65803;PMS5003;65658;63.740;34.316;2023-02-10T20:48:18;25;29;
65803;PMS5003;65658;63.740;34.316;2023-02-10T20:52:18;23;23;
65803;PMS5003;65658;63.740;34.316;2023-02-10T20:56:04;16;19;
65803;PMS5003;65658;63.740;34.316;2023-02-10T20:59:51;13;16;
65803;PMS5003;65658;63.740;34.316;2023-02-10T21:03:38;14;18;
65803;PMS5003;65658;63.740;34.316;2023-02-10T21:07:25;13;14;
65803;PMS5003;65658;63.740;34.316;2023-02-10T21:11:12;7;7;
65803;PMS5003;65658;63.740;34.316;2023-02-10T21:14:59;11;11;
65803;PMS5003;65658;63.740;34.316;2023-02-10T21:18:45;6;8;
65803;PMS5003;65658;63.740;34.316;2023-02-10T21:22:32;3;3;
65803;PMS5003;65658;63.740;34.316;2023-02-10T21:26:18;1;1;
65803;PMS5003;65658;63.740;34.316;2023-02-10T21:30:06;1;1;
65803;PMS5003;65658;63.740;34.316;2023-02-10T21:33:52;1;1;
65803;PMS5003;65658;63.740;34.316;2023-02-10T21:37:38;1;1;
65803;PMS5003;65658;63.740;34.316;2023-02-10T21:41:25;0;0;
65803;PMS5003;65658;63.740;34.316;2023-02-10T21:45:11;0;0;
65803;PMS5003;65658;63.740;34.316;2023-02-10T21:48:58;0;0;
65803;PMS5003;65658;63.740;34.316;2023-02-10T21:52:55;0;0;
65803;PMS5003;65658;63.740;34.316;2023-02-10T21:56:42;0;0;
65803;PMS5003;65658;63.740;34.316;2023-02-10T22:00:29;0;1;
65803;PMS5003;65658;63.740;34.316;2023-02-10T22:04:15;0;2;
65803;PMS5003;65658;63.740;34.316;2023-02-10T22:08:01;0;1;
65803;PMS5003;65658;63.740;34.316;2023-02-10T22:11:48;1;1;
65803;PMS5003;65658;63.740;34.316;2023-02-10T22:15:50;1;1;
65803;PMS5003;65658;63.740;34.316;2023-02-10T22:19:36;0;0;
65803;PMS5003;65658;63.740;34.316;2023-02-10T22:23:23;1;1;
65803;PMS5003;65658;63.740;34.316;2023-02-10T22:27:10;0;0;
65803;PMS5003;65658;63.740;34.316;2023-02-10T22:30:57;0;0;
65803;PMS5003;65658;63.740;34.316;2023-02-10T22:34:44;0;0;
65803;PMS5003;65658;63.740;34.316;2023-02-10T22:38:30;0;0;
65803;PMS5003;65658;63.740;34.316;2023-02-10T22:42:17;0;0;
65803;PMS5003;65658;63.740;34.316;2023-02-10T22:46:04;0;0;
65803;PMS5003;65658;63.740;34.316;2023-02-10T22:49:50;0;0;
65803;PMS5003;65658;63.740;34.316;2023-02-10T22:53:37;0;1;
65803;PMS5003;65658;63.740;34.316;2023-02-10T22:57:25;0;0;
65803;PMS5003;65658;63.740;34.316;2023-02-10T23:01:13;0;0;
65803;PMS5003;65658;63.740;34.316;2023-02-10T23:05:10;0;0;
65803;PMS5003;65658;63.740;34.316;2023-02-10T23:08:57;0;0;
65803;PMS5003;65658;63.740;34.316;2023-02-10T23:12:43;0;0;
65803;PMS5003;65658;63.740;34.316;2023-02-10T23:16:30;1;1;
65803;PMS5003;65658;63.740;34.316;2023-02-10T23:20:16;0;0;
65803;PMS5003;65658;63.740;34.316;2023-02-10T23:24:03;0;0;
65803;PMS5003;65658;63.740;34.316;2023-02-10T23:28:10;0;0;
65803;PMS5003;65658;63.740;34.316;2023-02-10T23:31:56;0;0;
65803;PMS5003;65658;63.740;34.316;2023-02-10T23:35:52;0;0;
65803;PMS5003;65658;63.740;34.316;2023-02-10T23:39:49;0;0;
65803;PMS5003;65658;63.740;34.316;2023-02-10T23:43:35;0;0;
65803;PMS5003;65658;63.740;34.316;2023-02-10T23:47:32;0;0;
65803;PMS5003;65658;63.740;34.316;2023-02-10T23:51:19;0;1;
65803;PMS5003;65658;63.740;34.316;2023-02-10T23:55:04;0;0;
65803;PMS5003;65658;63.740;34.316;2023-02-10T23:58:51;0;0;
